Time,TemperatureF,DewpointF,PressureIn,WindDirection,WindDirectionDegrees,WindSpeedMPH,WindSpeedGustMPH,Humidity,HourlyPrecipIn,Conditions,Clouds,dailyrainin,SolarRadiationWatts/m^2,SoftwareType,DateUTC
2013-07-12 00:01:00,68.0,67.0,-100.00,SSW,196,2.0,5.0,97,0.00,,,0.01,0.000000,,2013-07-12 04:01:00,
2013-07-12 00:11:00,68.0,67.0,-100.00,SSW,196,2.0,5.0,97,0.00,,,0.01,0.000000,,2013-07-12 04:11:00,
2013-07-12 00:43:00,68.0,68.0,-100.00,SSE,154,0.0,4.0,99,0.00,,,0.01,0.000000,,2013-07-12 04:43:00,
2013-07-12 00:53:00,68.0,68.0,-100.00,SSE,154,0.0,4.0,99,0.00,,,0.01,0.000000,,2013-07-12 04:53:00,
2013-07-12 01:02:00,68.0,68.0,-100.00,SSE,154,0.0,4.0,99,0.00,,,0.01,0.000000,,2013-07-12 05:02:00,
2013-07-12 01:11:00,68.0,68.0,-100.00,SSE,154,0.0,4.0,99,0.00,,,0.01,0.000000,,2013-07-12 05:11:00,
2013-07-12 01:43:00,68.0,68.0,-100.00,SE,135,1.0,2.0,99,0.00,,,0.01,0.000000,,2013-07-12 05:43:00,
2013-07-12 01:53:00,68.0,68.0,-100.00,SE,135,1.0,2.0,99,0.00,,,0.01,0.000000,,2013-07-12 05:53:00,
2013-07-12 02:01:00,68.0,68.0,-100.00,SE,135,1.0,2.0,99,0.00,,,0.01,0.000000,,2013-07-12 06:01:00,
2013-07-12 02:11:00,68.0,68.0,-100.00,SE,135,1.0,2.0,99,0.00,,,0.01,0.000000,,2013-07-12 06:11:00,
2013-07-12 02:42:00,68.0,68.0,-100.00,ESE,109,1.0,3.0,100,0.00,,,0.01,0.000000,,2013-07-12 06:42:00,
2013-07-12 02:52:00,68.0,68.0,-100.00,ESE,109,1.0,3.0,100,0.00,,,0.01,0.000000,,2013-07-12 06:52:00,
2013-07-12 03:02:00,68.0,68.0,-100.00,ESE,109,1.0,3.0,100,0.00,,,0.01,0.000000,,2013-07-12 07:02:00,
2013-07-12 03:12:00,68.0,68.0,-100.00,ESE,109,1.0,3.0,100,0.00,,,0.01,0.000000,,2013-07-12 07:12:00,
2013-07-12 03:43:00,67.0,67.0,-100.00,SE,136,2.0,2.0,100,0.00,,,0.01,0.000000,,2013-07-12 07:43:00,
2013-07-12 03:52:00,67.0,67.0,-100.00,SE,136,2.0,2.0,100,0.00,,,0.01,0.000000,,2013-07-12 07:52:00,
2013-07-12 04:02:00,67.0,67.0,-100.00,SE,136,2.0,2.0,100,0.00,,,0.01,0.000000,,2013-07-12 08:02:00,
2013-07-12 04:11:00,67.0,67.0,-100.00,SE,136,2.0,2.0,100,0.00,,,0.01,0.000000,,2013-07-12 08:11:00,
2013-07-12 04:42:00,67.0,67.0,-100.00,South,178,1.0,2.0,100,0.00,,,0.01,0.000000,,2013-07-12 08:42:00,
2013-07-12 04:53:00,67.0,67.0,-100.00,South,178,1.0,2.0,100,0.00,,,0.01,0.000000,,2013-07-12 08:53:00,
2013-07-12 05:02:00,67.0,67.0,-100.00,South,178,1.0,2.0,100,0.00,,,0.01,0.000000,,2013-07-12 09:02:00,
2013-07-12 05:12:00,67.0,67.0,-100.00,South,178,1.0,2.0,100,0.00,,,0.01,0.000000,,2013-07-12 09:12:00,
2013-07-12 05:43:00,66.0,66.0,-100.00,East,85,1.0,2.0,100,0.00,,,0.01,0.000000,,2013-07-12 09:43:00,
2013-07-12 05:52:00,66.0,66.0,-100.00,East,85,1.0,2.0,100,0.00,,,0.01,0.000000,,2013-07-12 09:52:00,
2013-07-12 06:01:00,66.0,66.0,-100.00,East,85,1.0,2.0,100,0.00,,,0.01,0.000000,,2013-07-12 10:01:00,
2013-07-12 06:11:00,66.0,66.0,-100.00,East,85,1.0,2.0,100,0.00,,,0.01,0.000000,,2013-07-12 10:11:00,
2013-07-12 06:52:00,67.0,67.0,-100.00,East,91,0.0,0.0,100,0.00,,,0.01,0.000000,,2013-07-12 10:52:00,
2013-07-12 07:02:00,67.0,67.0,-100.00,East,91,0.0,0.0,100,0.00,,,0.01,0.000000,,2013-07-12 11:02:00,
2013-07-12 07:12:00,67.0,67.0,-100.00,East,91,0.0,0.0,100,0.00,,,0.01,0.000000,,2013-07-12 11:12:00,
2013-07-12 07:43:00,67.0,67.0,-100.00,ESE,113,0.0,0.0,100,0.00,,,0.01,9.000000,,2013-07-12 11:43:00,
2013-07-12 07:53:00,67.0,67.0,-100.00,ESE,113,0.0,0.0,100,0.00,,,0.01,9.000000,,2013-07-12 11:53:00,
2013-07-12 08:02:00,67.0,67.0,-100.00,ESE,113,0.0,0.0,100,0.00,,,0.01,9.000000,,2013-07-12 12:02:00,
2013-07-12 08:11:00,67.0,67.0,-100.00,ESE,113,0.0,0.0,100,0.00,,,0.01,9.000000,,2013-07-12 12:11:00,
2013-07-12 08:43:00,69.0,68.0,-100.00,East,101,0.0,2.0,97,0.00,,,0.01,46.000000,,2013-07-12 12:43:00,
2013-07-12 08:53:00,69.0,68.0,-100.00,East,101,0.0,2.0,97,0.00,,,0.01,46.000000,,2013-07-12 12:53:00,
2013-07-12 09:01:00,69.0,68.0,-100.00,East,101,0.0,2.0,97,0.00,,,0.01,46.000000,,2013-07-12 13:01:00,
2013-07-12 09:12:00,69.0,68.0,-100.00,East,101,0.0,2.0,97,0.00,,,0.01,46.000000,,2013-07-12 13:12:00,
2013-07-12 09:43:00,71.0,68.0,-100.00,SSE,147,2.0,3.0,91,0.00,,,0.01,93.000000,,2013-07-12 13:43:00,
2013-07-12 09:53:00,71.0,68.0,-100.00,SSE,147,2.0,3.0,91,0.00,,,0.01,93.000000,,2013-07-12 13:53:00,
2013-07-12 10:02:00,71.0,68.0,-100.00,SSE,147,2.0,3.0,91,0.00,,,0.01,93.000000,,2013-07-12 14:02:00,
2013-07-12 10:12:00,71.0,68.0,-100.00,SSE,147,2.0,3.0,91,0.00,,,0.01,93.000000,,2013-07-12 14:12:00,
2013-07-12 10:44:00,71.0,66.0,-100.00,SW,226,3.0,9.0,85,0.00,,,0.01,177.000000,,2013-07-12 14:44:00,
2013-07-12 10:53:00,71.0,66.0,-100.00,SW,226,3.0,9.0,85,0.00,,,0.01,177.000000,,2013-07-12 14:53:00,
2013-07-12 11:02:00,71.0,66.0,-100.00,SW,226,3.0,9.0,85,0.00,,,0.01,177.000000,,2013-07-12 15:02:00,
2013-07-12 11:11:00,71.0,66.0,-100.00,SW,226,3.0,9.0,85,0.00,,,0.01,177.000000,,2013-07-12 15:11:00,
2013-07-12 11:43:00,75.0,68.0,-100.00,South,172,5.0,12.0,79,0.00,,,0.01,447.000000,,2013-07-12 15:43:00,
2013-07-12 11:53:00,75.0,68.0,-100.00,South,172,5.0,12.0,79,0.00,,,0.01,447.000000,,2013-07-12 15:53:00,
2013-07-12 12:01:00,75.0,68.0,-100.00,South,172,5.0,12.0,79,0.00,,,0.01,447.000000,,2013-07-12 16:01:00,
2013-07-12 12:11:00,75.0,68.0,-100.00,South,172,5.0,12.0,79,0.00,,,0.01,447.000000,,2013-07-12 16:11:00,
2013-07-12 12:43:00,74.0,65.0,-100.00,WSW,254,6.0,11.0,73,0.00,,,0.01,439.000000,,2013-07-12 16:43:00,
2013-07-12 12:59:00,74.0,65.0,-100.00,WSW,254,6.0,11.0,73,0.00,,,0.01,439.000000,,2013-07-12 16:59:00,
2013-07-12 13:07:00,74.0,65.0,-100.00,WSW,254,6.0,11.0,73,0.00,,,0.01,439.000000,,2013-07-12 17:07:00,
2013-07-12 13:14:00,74.0,65.0,-100.00,WSW,254,6.0,11.0,73,0.00,,,0.01,439.000000,,2013-07-12 17:14:00,
2013-07-12 13:47:00,76.0,66.0,-100.00,SW,233,6.0,11.0,71,0.00,,,0.01,477.000000,,2013-07-12 17:47:00,
2013-07-12 13:56:00,76.0,66.0,-100.00,SW,233,6.0,11.0,71,0.00,,,0.01,477.000000,,2013-07-12 17:56:00,
2013-07-12 14:07:00,76.0,66.0,-100.00,SW,233,6.0,11.0,71,0.00,,,0.01,477.000000,,2013-07-12 18:07:00,
2013-07-12 14:14:00,76.0,66.0,-100.00,SW,233,6.0,11.0,71,0.00,,,0.01,477.000000,,2013-07-12 18:14:00,
2013-07-12 14:51:00,80.0,69.0,-100.00,SSW,193,4.0,13.0,69,0.00,,,-99.99,596.000000,,2013-07-12 18:51:00,
2013-07-12 14:58:00,80.0,69.0,-100.00,SSW,193,4.0,13.0,69,0.00,,,-99.99,596.000000,,2013-07-12 18:58:00,
2013-07-12 15:05:00,80.0,69.0,-100.00,SSW,193,4.0,13.0,69,0.00,,,-99.99,596.000000,,2013-07-12 19:05:00,
2013-07-12 15:15:00,80.0,69.0,-100.00,SSW,193,4.0,13.0,69,0.00,,,-99.99,596.000000,,2013-07-12 19:15:00,
2013-07-12 15:58:00,79.0,64.0,-100.00,WSW,258,6.0,15.0,61,0.00,,,0.01,640.000000,,2013-07-12 19:58:00,
2013-07-12 16:04:00,79.0,64.0,-100.00,WSW,258,6.0,15.0,61,0.00,,,0.01,640.000000,,2013-07-12 20:04:00,
2013-07-12 16:14:00,79.0,64.0,-100.00,WSW,258,6.0,15.0,61,0.00,,,0.01,640.000000,,2013-07-12 20:14:00,
2013-07-12 16:47:00,78.0,69.0,-100.00,South,181,4.0,12.0,73,0.00,,,0.00,384.000000,,2013-07-12 20:47:00,
2013-07-12 16:55:00,78.0,69.0,-100.00,South,181,4.0,12.0,73,0.00,,,0.00,384.000000,,2013-07-12 20:55:00,
2013-07-12 17:04:00,78.0,69.0,-100.00,South,181,4.0,12.0,73,0.00,,,0.00,384.000000,,2013-07-12 21:04:00,
2013-07-12 17:16:00,78.0,69.0,-100.00,South,181,4.0,12.0,73,0.00,,,0.00,384.000000,,2013-07-12 21:16:00,
2013-07-12 17:17:00,80.0,64.0,-100.00,WSW,248,6.0,13.0,58,0.00,,,0.00,643.000000,,2013-07-12 21:17:00,
2013-07-12 17:49:00,80.0,64.0,-100.00,WSW,248,6.0,13.0,58,0.00,,,0.00,643.000000,,2013-07-12 21:49:00,
2013-07-12 17:59:00,80.0,64.0,-100.00,WSW,248,6.0,13.0,58,0.00,,,0.00,643.000000,,2013-07-12 21:59:00,
2013-07-12 18:47:00,75.0,65.0,-100.00,SSE,156,3.0,7.0,72,0.00,,,0.00,231.000000,,2013-07-12 22:47:00,
2013-07-12 18:56:00,75.0,65.0,-100.00,SSE,156,3.0,7.0,72,0.00,,,0.00,231.000000,,2013-07-12 22:56:00,
2013-07-12 19:05:00,75.0,65.0,-100.00,SSE,156,3.0,7.0,72,0.00,,,0.00,231.000000,,2013-07-12 23:05:00,
2013-07-12 19:14:00,75.0,65.0,-100.00,SSE,156,3.0,7.0,72,0.00,,,0.00,231.000000,,2013-07-12 23:14:00,
2013-07-12 19:17:00,71.0,59.0,-100.00,SE,140,2.0,8.0,66,0.00,,,0.00,111.000000,,2013-07-12 23:17:00,
2013-07-12 19:45:00,71.0,59.0,-100.00,SE,140,2.0,8.0,66,0.00,,,0.00,111.000000,,2013-07-12 23:45:00,
2013-07-12 19:58:00,71.0,59.0,-100.00,SE,140,2.0,8.0,66,0.00,,,0.00,111.000000,,2013-07-12 23:58:00,
2013-07-12 20:07:00,71.0,59.0,-100.00,SE,140,2.0,8.0,66,0.00,,,0.00,111.000000,,2013-07-13 00:07:00,
2013-07-12 21:57:00,65.0,61.0,-100.00,SE,143,2.0,4.0,87,-99.99,,,0.00,5.000000,,2013-07-13 01:57:00,
2013-07-12 22:07:00,65.0,61.0,-100.00,SE,143,2.0,4.0,87,-99.99,,,0.00,5.000000,,2013-07-13 02:07:00,
2013-07-12 22:15:00,65.0,61.0,-100.00,SE,143,2.0,4.0,87,-99.99,,,0.00,5.000000,,2013-07-13 02:15:00,
2013-07-12 22:48:00,64.0,63.0,-100.00,SSE,153,2.0,5.0,95,0.00,,,0.00,0.000000,,2013-07-13 02:48:00,
2013-07-12 22:56:00,64.0,63.0,-100.00,SSE,153,2.0,5.0,95,0.00,,,0.00,0.000000,,2013-07-13 02:56:00,
2013-07-12 23:06:00,64.0,63.0,-100.00,SSE,153,2.0,5.0,95,0.00,,,0.00,0.000000,,2013-07-13 03:06:00,
2013-07-12 23:13:00,64.0,63.0,-100.00,SSE,153,2.0,5.0,95,0.00,,,0.00,0.000000,,2013-07-13 03:13:00,
2013-07-12 23:47:00,65.0,62.0,-100.00,ESE,122,1.0,7.0,90,0.00,,,0.00,0.000000,,2013-07-13 03:47:00,
2013-07-12 23:57:00,65.0,62.0,-100.00,ESE,122,1.0,7.0,90,0.00,,,0.00,0.000000,,2013-07-13 03:57:00,